Accueil
METAR-TAF:

METAR-TAF

Aéroports :

Aéroport d'Apia

Apia, Upolu, Samoa

latitude: 13-49S, longitude: 172-00W, altitude: 5 m

Observation

Le bulletin a été fait il y a 37 minutes, à 23:00 UTC
Vent 6 kt de nord/nord-est
Température 30°C
Humidité 66%
Pression 1013 hPa
Visibilité 10 km ou plus
Quelques nuages à une hauteur de 2800 ft

METAR: NSFA 232300Z 02006KT 9999 FEW028 30/23 Q1013 NOSIG

Heure: 12:37 (23:37 UTC)

Prévision

Le bulletin a été fait il y a 17 minutes, à 23:20 UTC
Prévision valable du 24 à 00 UTC au 24 à 24 UTC
Vent 6 kt de est
Visibilité 10 km ou plus
Nuages épars à une hauteur de 2500 ft
Probabilité 30% :
Temporairement
du 24 à 00 UTC au 24 à 12 UTC
Visibilité: 5000 m
Nuages fragmentés à une hauteur de 1500 ft
averses de pluie

TAF: NSFA 232320Z 2400/2424 08006KT 9999 SCT025 PROB30 TEMPO 2400/2412 5000 SHRA BKN015

Observations et prévisions météorologiques de plus de 4000 aéroports (messages METAR et TAF).

Les stations disponibles sont représentées par des disques jaunes et rouges sur la carte.

Passer la souris dessus pour voir le nom de la station.

Cliquer dessus pour voir les observations et prévisions météorologiques.

Pour changer de carte: cliquez sur les boutons verts avec une croix noire pour zoomer, sur le bouton vert avec un tiret pour effectuer un zoom arrière, ou sur les flèches vertes pour les cartes adjacentes.


METAR-TAF: